M I D A S
Marine Information and Data Acquisition System
Tripno 1685 of the Zeeleeuw from 2009-04-30 07:18:56 to 2009-04-30 13:35:03
Back to CruiseResearch ActivitiesStationsMapUnderway DataData graphs

EquipmentUnitsComment
TimeDGPSUTC
LatitudeDGPSDM.mWGS84
LongitudeDGPSDM.mWGS84
HeadingGyrodeg 
SOGDGPSknotsSpeed over ground
COGDGPSdegCourse over ground
DepthEcho soundermeters200 kHz
Missing or incorrect values are displayed as -999
Navigation data collected by the RV Zeeleeuw from 2009-04-30 07:12:34 to 2009-04-30 13:46:19
                                                                                    Next 1000 lines
Time Latitude Longitude Heading SOG COG Depth
2009-04-30 07:12:44 51°13.662 2°55.956 111.8 0.5 293 6.1
2009-04-30 07:12:49 51°13.662 2°55.955 111.5 0.7 297 6.1
2009-04-30 07:12:54 51°13.662 2°55.953 111.5 0.9 294 6.1
2009-04-30 07:12:59 51°13.663 2°55.951 111.7 1 295 6.1
2009-04-30 07:13:03 51°13.664 2°55.949 112 1.1 293 6.1
2009-04-30 07:13:09 51°13.664 2°55.946 112 1.3 300 6.2
2009-04-30 07:13:14 51°13.665 2°55.943 112 1.5 295 4.9
2009-04-30 07:13:19 51°13.665 2°55.94 112 1.6 297 4.7
2009-04-30 07:13:24 51°13.666 2°55.937 111.9 1.7 297 4.5
2009-04-30 07:13:30 51°13.668 2°55.933 111.4 1.8 298 -999
2009-04-30 07:13:35 51°13.67 2°55.929 110.6 1.9 296 -999
2009-04-30 07:13:41 51°13.671 2°55.925 109.5 1.9 294 -999
2009-04-30 07:13:47 51°13.672 2°55.92 108.4 2 293 -999
2009-04-30 07:13:52 51°13.673 2°55.916 107.5 2.1 291 -999
2009-04-30 07:13:58 51°13.674 2°55.91 106.3 2.2 291 -999
2009-04-30 07:14:02 51°13.675 2°55.907 105.6 2.2 288 -999
2009-04-30 07:14:07 51°13.676 2°55.902 105.2 2.3 289 -999
2009-04-30 07:14:13 51°13.677 2°55.896 104.6 2.4 287 -999
2009-04-30 07:14:17 51°13.678 2°55.892 103.9 2.4 288 -999
2009-04-30 07:14:23 51°13.679 2°55.886 103.2 2.5 286 -999
2009-04-30 07:14:27 51°13.68 2°55.882 102.5 2.6 286 -999
2009-04-30 07:14:33 51°13.681 2°55.875 101.8 2.6 286 -999
2009-04-30 07:14:38 51°13.682 2°55.869 101.1 2.7 286 -999
2009-04-30 07:14:42 51°13.683 2°55.865 100.5 2.7 284 -999
2009-04-30 07:14:47 51°13.684 2°55.859 99.9 2.8 283 -999
2009-04-30 07:14:53 51°13.685 2°55.851 99.3 2.9 282 -999
2009-04-30 07:14:58 51°13.686 2°55.845 98.8 2.9 281 -999
2009-04-30 07:15:02 51°13.686 2°55.84 98.1 3 282 -999
2009-04-30 07:15:07 51°13.687 2°55.833 97.2 3.1 281 -999
2009-04-30 07:15:13 51°13.688 2°55.825 96 3.1 280 -999
2009-04-30 07:15:18 51°13.689 2°55.818 94.8 3.1 279 -999
2009-04-30 07:15:22 51°13.689 2°55.812 93.7 3.2 278 -999
2009-04-30 07:15:27 51°13.69 2°55.805 92.4 3.1 278 -999
2009-04-30 07:15:33 51°13.691 2°55.798 91.2 3 276 -999
2009-04-30 07:15:38 51°13.692 2°55.791 90.1 2.8 276 -999
2009-04-30 07:15:42 51°13.692 2°55.787 89.1 2.7 275 -999
2009-04-30 07:15:47 51°13.692 2°55.781 88.1 2.6 274 -999
2009-04-30 07:15:52 51°13.692 2°55.776 87.4 2.5 273 -999
2009-04-30 07:15:58 51°13.692 2°55.77 86.8 2.3 273 -999
2009-04-30 07:16:02 51°13.692 2°55.766 86.2 2.2 273 12.3
2009-04-30 07:16:07 51°13.692 2°55.761 85.7 1.9 273 12.6
2009-04-30 07:16:12 51°13.693 2°55.758 84.3 1.5 276 12.8
2009-04-30 07:16:17 51°13.693 2°55.756 82.6 1 284 13.2
2009-04-30 07:16:22 51°13.694 2°55.754 79.8 0.6 303 13.2
2009-04-30 07:16:27 51°13.694 2°55.754 76 0.5 347 13.1
2009-04-30 07:16:31 51°13.695 2°55.755 71.1 0.7 23 13.2
2009-04-30 07:16:36 51°13.696 2°55.756 66.4 1.1 34 13.1
2009-04-30 07:16:41 51°13.698 2°55.758 59.9 1.4 36 13.1
2009-04-30 07:16:47 51°13.7 2°55.76 51.6 1.8 34 13
2009-04-30 07:16:51 51°13.702 2°55.762 44.6 2 29 13.2
2009-04-30 07:16:56 51°13.704 2°55.764 39.1 1.9 24 13.4
2009-04-30 07:17:01 51°13.707 2°55.765 31 1.8 21 13.3
2009-04-30 07:17:06 51°13.709 2°55.766 26.3 1.7 14 12.8
2009-04-30 07:17:11 51°13.711 2°55.767 23.3 1.5 12 12.7
2009-04-30 07:17:16 51°13.713 2°55.768 20.7 1.2 8 12.7
2009-04-30 07:17:21 51°13.714 2°55.768 18.2 0.9 2 12.4
2009-04-30 07:17:26 51°13.715 2°55.768 14.2 0.6 354 12.8
2009-04-30 07:17:31 51°13.715 2°55.767 11.2 0.4 337 -999
2009-04-30 07:17:36 51°13.715 2°55.767 8.8 0.2 265 -999
2009-04-30 07:17:41 51°13.715 2°55.767 6.6 0.3 209 12.5
2009-04-30 07:17:46 51°13.714 2°55.767 4.8 0.6 195 12.5
2009-04-30 07:17:51 51°13.713 2°55.766 3.2 0.8 190 12.6
2009-04-30 07:17:56 51°13.711 2°55.766 1.9 1.1 187 12.9
2009-04-30 07:18:02 51°13.709 2°55.765 0.2 1.3 185 -999
2009-04-30 07:18:07 51°13.707 2°55.765 358.6 1.2 184 -999
2009-04-30 07:18:12 51°13.706 2°55.765 357.3 1.1 185 -999
2009-04-30 07:18:18 51°13.704 2°55.765 356.5 0.8 190 -999
2009-04-30 07:18:22 51°13.704 2°55.765 355.5 0.2 225 -999
2009-04-30 07:18:27 51°13.705 2°55.764 352.9 0.6 331 -999
2009-04-30 07:18:33 51°13.707 2°55.763 348.4 1.3 336 -999
2009-04-30 07:18:38 51°13.709 2°55.761 342.5 1.9 335 -999
2009-04-30 07:18:42 51°13.711 2°55.76 336.5 2.5 333 4.7
2009-04-30 07:18:47 51°13.715 2°55.756 332.7 3 329 4.7
2009-04-30 07:18:52 51°13.719 2°55.752 330.1 3.5 329 4.6
2009-04-30 07:18:57 51°13.724 2°55.748 328.2 3.9 327 12.4
2009-04-30 07:19:02 51°13.729 2°55.743 327.3 4.3 327 12.1
2009-04-30 07:19:07 51°13.734 2°55.737 326.6 4.7 323 11.7
2009-04-30 07:19:12 51°13.739 2°55.731 325.2 5 324 11.6
2009-04-30 07:19:17 51°13.745 2°55.724 324.7 5.1 324 11.7
2009-04-30 07:19:22 51°13.751 2°55.716 324.8 5.2 324 11
2009-04-30 07:19:27 51°13.756 2°55.709 324.9 5.2 323 10.5
2009-04-30 07:19:32 51°13.762 2°55.703 324.9 5.1 323 10.3
2009-04-30 07:19:37 51°13.768 2°55.696 324.6 5.1 324 10
2009-04-30 07:19:42 51°13.774 2°55.69 324.6 5.2 326 10.4
2009-04-30 07:19:47 51°13.78 2°55.684 325.9 5.1 326 10.1
2009-04-30 07:19:52 51°13.786 2°55.678 327.6 5.1 329 -999
2009-04-30 07:19:57 51°13.792 2°55.672 329.6 5 330 -999
2009-04-30 07:20:02 51°13.798 2°55.667 331.1 4.9 332 10.5
2009-04-30 07:20:07 51°13.804 2°55.662 332.6 4.9 333 10.5
2009-04-30 07:20:12 51°13.81 2°55.657 335.1 4.9 335 10.5
2009-04-30 07:20:17 51°13.816 2°55.653 336.6 4.8 336 10.5
2009-04-30 07:20:22 51°13.822 2°55.649 338.2 4.8 338 10.5
2009-04-30 07:20:27 51°13.828 2°55.645 339.3 4.8 338 10.1
2009-04-30 07:20:32 51°13.835 2°55.642 340.5 4.8 341 10.2
2009-04-30 07:20:37 51°13.841 2°55.639 342 4.9 342 10.4
2009-04-30 07:20:42 51°13.848 2°55.635 343.4 5.6 344 10.4
2009-04-30 07:20:47 51°13.856 2°55.632 344.9 6 345 10.2
2009-04-30 07:20:51 51°13.863 2°55.629 346 6.4 344 10.2
2009-04-30 07:20:56 51°13.872 2°55.625 346.4 6.6 346 10.5
2009-04-30 07:21:02 51°13.883 2°55.62 347.1 6.9 345 10.8
2009-04-30 07:21:07 51°13.893 2°55.617 346.5 7 345 -999
2009-04-30 07:21:13 51°13.904 2°55.611 345.3 7.1 343 -999
2009-04-30 07:21:18 51°13.914 2°55.606 344.1 7.2 342 -999
2009-04-30 07:21:22 51°13.921 2°55.602 343 7.3 341 -999
2009-04-30 07:21:27 51°13.931 2°55.596 341.6 7.4 339 -999
2009-04-30 07:21:33 51°13.942 2°55.589 340.3 7.5 338 -999
2009-04-30 07:21:37 51°13.95 2°55.583 338.6 7.4 336 10.5
2009-04-30 07:21:42 51°13.959 2°55.576 337.6 7.5 334 10.6
2009-04-30 07:21:47 51°13.968 2°55.568 336.1 7.6 333 10.5
2009-04-30 07:21:52 51°13.978 2°55.56 334.1 7.7 332 10.7
2009-04-30 07:21:57 51°13.987 2°55.552 332.7 7.7 331 10.9
2009-04-30 07:22:02 51°13.996 2°55.544 332.1 7.6 331 10.8
2009-04-30 07:22:07 51°14.005 2°55.536 332 7.6 331 10.8
2009-04-30 07:22:12 51°14.015 2°55.527 331.8 7.7 330 10.8
2009-04-30 07:22:17 51°14.024 2°55.519 330.8 7.8 330 10.7
2009-04-30 07:22:22 51°14.034 2°55.51 330.6 8.1 330 10.5
2009-04-30 07:22:27 51°14.044 2°55.501 330.8 8.3 330 10.8
2009-04-30 07:22:32 51°14.054 2°55.491 330.6 8.6 328 -999
2009-04-30 07:22:37 51°14.064 2°55.481 330 8.8 330 10.7
2009-04-30 07:22:42 51°14.075 2°55.471 330.4 9.1 330 10.7
2009-04-30 07:22:47 51°14.086 2°55.461 331.3 9.2 329 10.7
2009-04-30 07:22:51 51°14.095 2°55.452 330.7 9.4 329 10.7
2009-04-30 07:22:57 51°14.109 2°55.439 330.1 9.5 329 10.7
2009-04-30 07:23:02 51°14.12 2°55.428 330.5 9.6 329 10.6
2009-04-30 07:23:07 51°14.131 2°55.416 330.4 9.7 328 10.6
2009-04-30 07:23:11 51°14.141 2°55.407 329.8 9.8 328 10.6
2009-04-30 07:23:16 51°14.152 2°55.396 329.7 9.9 328 10.5
2009-04-30 07:23:21 51°14.164 2°55.384 329.8 9.9 327 10.6
2009-04-30 07:23:27 51°14.178 2°55.37 328.6 9.9 327 -999
2009-04-30 07:23:31 51°14.187 2°55.36 328.3 10 327 10.5
2009-04-30 07:23:36 51°14.199 2°55.347 328.4 10.2 325 10.6
2009-04-30 07:23:41 51°14.21 2°55.334 327 10.3 324 10.6
2009-04-30 07:23:46 51°14.222 2°55.32 325.7 10.4 323 10.6
2009-04-30 07:23:51 51°14.233 2°55.305 324.6 10.4 320 10.6
2009-04-30 07:23:56 51°14.244 2°55.289 322.8 10.6 319 10.6
2009-04-30 07:24:01 51°14.254 2°55.272 320.5 10.9 317 10.6
2009-04-30 07:24:06 51°14.265 2°55.254 318 11.1 313 10.6
2009-04-30 07:24:11 51°14.275 2°55.236 315.8 11.2 313 10.6
2009-04-30 07:24:15 51°14.283 2°55.221 314.1 11.5 310 10.6
2009-04-30 07:24:20 51°14.294 2°55.201 312.6 11.7 312 10.6
2009-04-30 07:24:25 51°14.305 2°55.181 312.4 11.8 310 10.5
2009-04-30 07:24:31 51°14.317 2°55.156 311.2 11.9 309 10.6
2009-04-30 07:24:35 51°14.325 2°55.14 310.2 12 308 10.6
2009-04-30 07:24:40 51°14.335 2°55.119 309.8 12 307 10.8
2009-04-30 07:24:45 51°14.346 2°55.098 309.6 12 307 10.9
2009-04-30 07:24:50 51°14.354 2°55.076 308.4 12 303 10.8
2009-04-30 07:24:55 51°14.363 2°55.053 305.1 12 301 10.6
2009-04-30 07:25:00 51°14.371 2°55.029 302.1 12 299 10.3
2009-04-30 07:25:05 51°14.379 2°55.006 301.1 12 299 10.2
2009-04-30 07:25:10 51°14.387 2°54.983 301.3 12.1 298 10.2
2009-04-30 07:25:15 51°14.394 2°54.959 300.4 12.1 297 10.3
2009-04-30 07:25:19 51°14.401 2°54.94 300.1 12.1 299 10.4
2009-04-30 07:25:24 51°14.409 2°54.917 301.5 12.1 299 10.6
2009-04-30 07:25:29 51°14.417 2°54.893 301.3 12.2 298 10.7
2009-04-30 07:25:34 51°14.425 2°54.869 300.6 12.3 298 10.7
2009-04-30 07:25:39 51°14.433 2°54.845 301.6 12.3 300 10.7
2009-04-30 07:25:44 51°14.442 2°54.822 303 12.2 301 10.8
2009-04-30 07:25:49 51°14.451 2°54.799 303.9 12.2 301 10.8
2009-04-30 07:25:54 51°14.46 2°54.776 305.7 12.3 304 10.8
2009-04-30 07:25:59 51°14.469 2°54.753 306.6 12.4 302 10.9
2009-04-30 07:26:04 51°14.478 2°54.73 306.2 12.3 303 10.9
2009-04-30 07:26:09 51°14.487 2°54.707 305.8 12.4 301 10.9
2009-04-30 07:26:14 51°14.497 2°54.684 306.2 12.4 304 10.8
2009-04-30 07:26:19 51°14.506 2°54.661 307.1 12.4 303 10.9
2009-04-30 07:26:24 51°14.516 2°54.638 307.2 12.4 304 10.9
2009-04-30 07:26:29 51°14.526 2°54.615 307.3 12.4 303 10.9
2009-04-30 07:26:34 51°14.535 2°54.593 307.8 12.4 305 10.8
2009-04-30 07:26:39 51°14.546 2°54.57 309 12.4 305 10.8
2009-04-30 07:26:43 51°14.554 2°54.553 309.3 12.5 305 10.7
2009-04-30 07:26:49 51°14.565 2°54.525 308.6 12.5 305 10.8
2009-04-30 07:26:54 51°14.576 2°54.503 309.4 12.5 307 10.7
2009-04-30 07:26:59 51°14.586 2°54.481 310.3 12.5 307 10.7
2009-04-30 07:27:04 51°14.597 2°54.46 311 12.5 309 10.7
2009-04-30 07:27:09 51°14.608 2°54.438 311.8 12.5 309 10.5
2009-04-30 07:27:14 51°14.619 2°54.418 313.6 12.4 312 10.5
2009-04-30 07:27:19 51°14.631 2°54.399 316.4 12.3 315 10.6
2009-04-30 07:27:23 51°14.641 2°54.385 319.5 12.2 318 10.6
2009-04-30 07:27:29 51°14.657 2°54.364 322.9 12.2 321 10.5
2009-04-30 07:27:34 51°14.67 2°54.348 325.1 12.1 323 10.6
2009-04-30 07:27:39 51°14.684 2°54.333 328.2 12 327 10.5
2009-04-30 07:27:44 51°14.698 2°54.319 330.3 12.1 327 10.7
2009-04-30 07:27:49 51°14.713 2°54.306 334 12.1 332 10.6
2009-04-30 07:27:54 51°14.728 2°54.294 336.4 12.1 331 10.4
2009-04-30 07:27:59 51°14.743 2°54.281 335.7 12.1 330 10.4
2009-04-30 07:28:04 51°14.757 2°54.267 335.3 12.1 331 10.6
2009-04-30 07:28:09 51°14.772 2°54.254 334.7 12.1 330 10.1
2009-04-30 07:28:14 51°14.786 2°54.24 334.5 12.1 330 10
2009-04-30 07:28:19 51°14.801 2°54.227 334.7 12.2 331 9.9
2009-04-30 07:28:24 51°14.815 2°54.214 335.4 12.2 331 10.2
2009-04-30 07:28:29 51°14.83 2°54.201 335.5 12.2 331 9.9
2009-04-30 07:28:34 51°14.845 2°54.188 335.1 12.2 330 9.8
2009-04-30 07:28:39 51°14.86 2°54.175 334.6 12.1 330 9.6
2009-04-30 07:28:44 51°14.874 2°54.161 334.5 12.2 330 9.5
2009-04-30 07:28:49 51°14.889 2°54.148 334.4 12.1 331 9.4
2009-04-30 07:28:54 51°14.904 2°54.135 334.4 12.1 330 9.3
2009-04-30 07:28:59 51°14.918 2°54.121 334.5 12.1 330 9.3
2009-04-30 07:29:03 51°14.93 2°54.11 334.5 12.2 330 9.3
2009-04-30 07:29:09 51°14.947 2°54.095 334.4 12.1 330 9.3
2009-04-30 07:29:14 51°14.962 2°54.081 334.1 12.2 330 9.3
2009-04-30 07:29:19 51°14.977 2°54.068 334.3 12.2 331 9.3
2009-04-30 07:29:23 51°14.988 2°54.057 334.5 12.2 330 9.3
2009-04-30 07:29:29 51°15.006 2°54.041 334.2 12.2 330 9.3
2009-04-30 07:29:34 51°15.021 2°54.028 334.2 12.2 331 9.4
2009-04-30 07:29:39 51°15.035 2°54.015 334.7 12.2 331 9.4
2009-04-30 07:29:43 51°15.047 2°54.005 335.4 12.2 332 9.5
2009-04-30 07:29:49 51°15.065 2°53.99 335.5 12.2 331 9.5
2009-04-30 07:29:54 51°15.081 2°53.978 335.7 12.2 332 9.5
2009-04-30 07:29:59 51°15.096 2°53.965 336.1 12.2 332 9.5
2009-04-30 07:30:04 51°15.111 2°53.953 336.2 12.2 332 9.5
2009-04-30 07:30:09 51°15.126 2°53.94 336.2 12.2 332 9.6
2009-04-30 07:30:14 51°15.141 2°53.928 336.4 12.2 333 9.6
2009-04-30 07:30:19 51°15.156 2°53.916 336.7 12.2 332 9.5
2009-04-30 07:30:24 51°15.171 2°53.904 336.7 12.1 333 9.5
2009-04-30 07:30:29 51°15.185 2°53.891 336.7 12.1 332 9.5
2009-04-30 07:30:34 51°15.2 2°53.878 336.6 12.1 332 9.6
2009-04-30 07:30:39 51°15.215 2°53.865 336.1 12.2 332 9.6
2009-04-30 07:30:44 51°15.23 2°53.853 336.1 12.2 332 9.7
2009-04-30 07:30:49 51°15.245 2°53.841 336.2 12.2 332 9.7
2009-04-30 07:30:54 51°15.26 2°53.828 336.5 12.1 333 9.8
2009-04-30 07:30:59 51°15.275 2°53.815 336.9 12.2 332 9.8
2009-04-30 07:31:03 51°15.287 2°53.805 337.1 12.2 333 9.9
2009-04-30 07:31:09 51°15.304 2°53.79 337.4 12.2 333 9.9
2009-04-30 07:31:14 51°15.319 2°53.778 337.4 12.2 333 9.9
2009-04-30 07:31:19 51°15.334 2°53.765 337.6 12.1 333 10
2009-04-30 07:31:24 51°15.349 2°53.753 337.5 12.1 332 10
2009-04-30 07:31:29 51°15.364 2°53.741 337.2 12.1 333 10.1
2009-04-30 07:31:34 51°15.379 2°53.729 337.2 12 333 10.1
2009-04-30 07:31:39 51°15.394 2°53.716 337.2 12 333 10.1
2009-04-30 07:31:43 51°15.405 2°53.706 337.1 12 332 10.2
2009-04-30 07:31:49 51°15.423 2°53.691 336.9 12 332 10.3
2009-04-30 07:31:54 51°15.438 2°53.679 336.9 11.9 332 10.4
2009-04-30 07:31:59 51°15.452 2°53.667 336.7 11.9 332 10.4
2009-04-30 07:32:03 51°15.464 2°53.657 336.9 11.9 333 10.5
2009-04-30 07:32:09 51°15.482 2°53.643 337.6 11.9 333 10.6
2009-04-30 07:32:14 51°15.496 2°53.631 337.7 11.9 333 10.7
2009-04-30 07:32:19 51°15.511 2°53.619 337.9 11.9 334 10.4
2009-04-30 07:32:24 51°15.526 2°53.608 338.4 11.9 334 10.5
2009-04-30 07:32:29 51°15.541 2°53.597 338.6 11.9 334 10.4
2009-04-30 07:32:34 51°15.556 2°53.585 338.8 11.9 334 10.8
2009-04-30 07:32:39 51°15.57 2°53.574 339.2 11.8 335 10.8
2009-04-30 07:32:44 51°15.585 2°53.562 339 11.9 334 10.9
2009-04-30 07:32:49 51°15.6 2°53.551 339 11.9 335 11
2009-04-30 07:32:54 51°15.615 2°53.539 338.8 11.9 334 10.8
2009-04-30 07:32:59 51°15.63 2°53.528 339 11.9 335 11
2009-04-30 07:33:04 51°15.645 2°53.517 339.4 11.9 335 11.1
2009-04-30 07:33:09 51°15.66 2°53.506 339.8 11.9 336 11.2
2009-04-30 07:33:14 51°15.675 2°53.496 340.7 11.9 336 11.1
2009-04-30 07:33:19 51°15.691 2°53.486 341.2 11.9 336 11.2
2009-04-30 07:33:23 51°15.704 2°53.479 341.5 11.9 337 11.2
2009-04-30 07:33:29 51°15.723 2°53.466 341.6 12 337 11.3
2009-04-30 07:33:34 51°15.738 2°53.456 341.7 12 337 11.3
2009-04-30 07:33:39 51°15.753 2°53.446 341.9 12 337 11.3
2009-04-30 07:33:44 51°15.769 2°53.435 342.1 12.1 337 11.5
2009-04-30 07:33:49 51°15.784 2°53.425 342.1 12.1 337 11.2
2009-04-30 07:33:54 51°15.799 2°53.415 342.1 12.1 337 11.8
2009-04-30 07:33:59 51°15.815 2°53.404 341.9 12.1 337 11.7
2009-04-30 07:34:03 51°15.827 2°53.396 341.7 12.1 337 11.4
2009-04-30 07:34:09 51°15.846 2°53.384 341.4 12.2 337 11.7
2009-04-30 07:34:14 51°15.862 2°53.373 341.2 12.2 337 12.1
2009-04-30 07:34:19 51°15.877 2°53.362 341.1 12.2 337 11.9
2009-04-30 07:34:24 51°15.893 2°53.352 341 12.2 337 12.1
2009-04-30 07:34:29 51°15.908 2°53.341 340.8 12.3 337 12.3
2009-04-30 07:34:34 51°15.923 2°53.33 340.7 12.2 337 12.1
2009-04-30 07:34:39 51°15.939 2°53.319 340.8 12.2 337 12.1
2009-04-30 07:34:44 51°15.954 2°53.309 340.7 12.2 337 11.6
2009-04-30 07:34:49 51°15.97 2°53.298 340.5 12.2 337 11.7
2009-04-30 07:34:54 51°15.986 2°53.287 340.5 12.2 337 11.8
2009-04-30 07:34:59 51°16.001 2°53.276 340.5 12.2 337 12.1
2009-04-30 07:35:03 51°16.014 2°53.268 340.4 12.2 337 11.9
2009-04-30 07:35:09 51°16.032 2°53.256 340.6 12.2 337 11.9
2009-04-30 07:35:14 51°16.048 2°53.245 340.5 12.2 337 11.8
2009-04-30 07:35:19 51°16.064 2°53.235 340.4 12.2 337 12.2
2009-04-30 07:35:24 51°16.079 2°53.224 340.1 12.2 336 11.8
2009-04-30 07:35:29 51°16.094 2°53.213 340.1 12.2 337 11.8
2009-04-30 07:35:34 51°16.11 2°53.202 340.1 12.2 336 11.9
2009-04-30 07:35:39 51°16.126 2°53.192 340 12.2 337 11.8
2009-04-30 07:35:43 51°16.138 2°53.183 340 12.2 337 11.8
2009-04-30 07:35:49 51°16.157 2°53.171 340 12.2 337 11.8
2009-04-30 07:35:54 51°16.173 2°53.162 341.9 12.1 344 11.8
2009-04-30 07:35:59 51°16.189 2°53.154 345.8 12.1 343 11.9
2009-04-30 07:36:03 51°16.201 2°53.148 347.8 12.1 345 11.9
2009-04-30 07:36:09 51°16.221 2°53.142 349.6 12.1 347 11.9
2009-04-30 07:36:14 51°16.237 2°53.136 351.2 12 350 11.9
2009-04-30 07:36:19 51°16.254 2°53.132 353.4 12 351 11.9
2009-04-30 07:36:23 51°16.267 2°53.128 354.4 12 351 11.9
2009-04-30 07:36:29 51°16.287 2°53.125 356.1 12 355 11.9
2009-04-30 07:36:34 51°16.303 2°53.124 359.2 12 356 11.9
2009-04-30 07:36:39 51°16.32 2°53.123 0.9 12 358 11.9
2009-04-30 07:36:44 51°16.336 2°53.123 2.9 12 1 11.9
2009-04-30 07:36:49 51°16.353 2°53.123 4.1 12 -999 11.9
2009-04-30 07:36:54 51°16.369 2°53.124 5.1 12 2 12
2009-04-30 07:36:59 51°16.386 2°53.125 5.9 12 2 11.9
2009-04-30 07:37:04 51°16.403 2°53.126 6.6 12 3 11.9
2009-04-30 07:37:09 51°16.419 2°53.127 7 12 3 11.9
2009-04-30 07:37:14 51°16.436 2°53.129 7.1 12 2 11.9
2009-04-30 07:37:19 51°16.452 2°53.13 6.5 11.9 2 11.9
2009-04-30 07:37:24 51°16.469 2°53.131 6.4 11.9 3 11.9
2009-04-30 07:37:29 51°16.485 2°53.132 6.5 12 2 11.9
2009-04-30 07:37:34 51°16.502 2°53.132 5.9 12 1 11.8
2009-04-30 07:37:39 51°16.518 2°53.133 5.8 11.9 1 11.8
2009-04-30 07:37:44 51°16.535 2°53.133 5.8 11.9 1 11.8
2009-04-30 07:37:49 51°16.551 2°53.134 5.8 12 1 11.7
2009-04-30 07:37:54 51°16.568 2°53.135 5.6 11.9 1 11.7
2009-04-30 07:37:59 51°16.584 2°53.135 5.6 11.9 1 11.6
2009-04-30 07:38:04 51°16.601 2°53.135 5.4 12 1 11.5
2009-04-30 07:38:09 51°16.618 2°53.136 5.2 11.9 1 11.5
2009-04-30 07:38:14 51°16.634 2°53.136 5.2 12 1 11.5
2009-04-30 07:38:19 51°16.651 2°53.137 5.5 12 1 11.5
2009-04-30 07:38:23 51°16.664 2°53.137 5.2 12 1 11.4
2009-04-30 07:38:29 51°16.684 2°53.138 5.3 12 2 11.5
2009-04-30 07:38:34 51°16.701 2°53.138 5.6 12 1 11.3
2009-04-30 07:38:39 51°16.717 2°53.139 5.5 12 1 11.2
2009-04-30 07:38:44 51°16.734 2°53.139 5.4 12.1 1 11.2
2009-04-30 07:38:49 51°16.751 2°53.14 5.2 12.1 1 11.2
2009-04-30 07:38:54 51°16.767 2°53.14 5.2 12 1 11.1
2009-04-30 07:38:59 51°16.784 2°53.141 5.2 12 2 11
2009-04-30 07:39:04 51°16.801 2°53.142 5.5 12 1 10.8
2009-04-30 07:39:09 51°16.817 2°53.142 5.2 12 1 10.5
2009-04-30 07:39:14 51°16.834 2°53.143 5.2 12 1 10.1
2009-04-30 07:39:19 51°16.851 2°53.143 5.2 12 1 9.4
2009-04-30 07:39:23 51°16.864 2°53.144 5.2 11.9 1 9
2009-04-30 07:39:29 51°16.884 2°53.144 5.3 11.8 1 8.7
2009-04-30 07:39:34 51°16.9 2°53.145 5.3 11.8 1 8.5
2009-04-30 07:39:39 51°16.916 2°53.145 5.1 11.8 1 8.3
2009-04-30 07:39:44 51°16.933 2°53.145 4.8 11.8 -999 8.5
2009-04-30 07:39:49 51°16.949 2°53.145 4.5 11.8 1 8.3
2009-04-30 07:39:54 51°16.965 2°53.146 4.4 11.9 1 8.2
2009-04-30 07:39:59 51°16.982 2°53.147 4.8 11.8 2 8.3
2009-04-30 07:40:04 51°16.998 2°53.148 5.6 11.9 2 8.3
2009-04-30 07:40:09 51°17.015 2°53.148 5.8 11.9 2 8.4
2009-04-30 07:40:14 51°17.031 2°53.149 5.5 12 1 8.5
2009-04-30 07:40:19 51°17.048 2°53.149 5.1 11.9 1 8.5
2009-04-30 07:40:23 51°17.061 2°53.15 4.8 12 1 8.6
2009-04-30 07:40:29 51°17.081 2°53.15 4.6 11.9 1 8.7
2009-04-30 07:40:34 51°17.098 2°53.15 4.4 12 -999 9
2009-04-30 07:40:39 51°17.114 2°53.15 4.3 12 1 9
2009-04-30 07:40:43 51°17.128 2°53.15 4.3 12 1 9
2009-04-30 07:40:49 51°17.148 2°53.151 4.5 12 2 8.9
2009-04-30 07:40:54 51°17.164 2°53.152 4.6 12 4 9
2009-04-30 07:40:59 51°17.181 2°53.155 7.4 12 6 9.1
2009-04-30 07:41:04 51°17.198 2°53.157 8.4 12 4 9
2009-04-30 07:41:09 51°17.214 2°53.161 9.9 11.9 9 9
2009-04-30 07:41:14 51°17.23 2°53.164 10.8 12 7 9.2
2009-04-30 07:41:19 51°17.247 2°53.169 11.7 11.9 10 9.1
2009-04-30 07:41:24 51°17.263 2°53.173 12.2 11.9 10 9.1
2009-04-30 07:41:29 51°17.279 2°53.178 13.4 11.9 12 9.1
2009-04-30 07:41:34 51°17.295 2°53.186 16.6 11.9 15 9.2
2009-04-30 07:41:39 51°17.311 2°53.192 18 11.9 15 9.3
2009-04-30 07:41:44 51°17.327 2°53.2 19.1 11.9 17 9.3
2009-04-30 07:41:49 51°17.342 2°53.208 21.1 11.9 18 9.4
2009-04-30 07:41:54 51°17.358 2°53.216 21.8 11.9 19 9.5
2009-04-30 07:41:59 51°17.373 2°53.226 23.1 11.9 20 9.4
2009-04-30 07:42:04 51°17.389 2°53.235 23.2 11.9 20 9.3
2009-04-30 07:42:09 51°17.404 2°53.245 24.4 11.9 21 9.5
2009-04-30 07:42:14 51°17.419 2°53.255 25.5 11.8 25 9.5
2009-04-30 07:42:19 51°17.434 2°53.266 27.8 11.8 26 9.4
2009-04-30 07:42:24 51°17.449 2°53.277 29 11.8 26 9.3
2009-04-30 07:42:29 51°17.463 2°53.29 30.4 11.8 28 9.4
2009-04-30 07:42:34 51°17.478 2°53.302 31.3 11.8 28 9.7
2009-04-30 07:42:39 51°17.492 2°53.315 32.1 11.9 29 9.5
2009-04-30 07:42:43 51°17.504 2°53.325 32.9 11.8 30 9.6
2009-04-30 07:42:49 51°17.521 2°53.341 33.4 11.8 30 9.6
2009-04-30 07:42:54 51°17.535 2°53.355 33.6 11.8 30 9.6
2009-04-30 07:42:59 51°17.549 2°53.368 33.7 11.9 31 9.6
2009-04-30 07:43:03 51°17.561 2°53.379 34.1 11.9 31 9.8
2009-04-30 07:43:09 51°17.578 2°53.395 33.9 11.9 31 9.9
2009-04-30 07:43:14 51°17.592 2°53.408 34.2 11.9 30 9.5
2009-04-30 07:43:19 51°17.606 2°53.422 34.2 11.9 31 9.7
2009-04-30 07:43:24 51°17.62 2°53.435 33.9 11.9 30 9.7
2009-04-30 07:43:29 51°17.635 2°53.448 33.4 11.8 30 9.6
2009-04-30 07:43:34 51°17.649 2°53.461 33.4 11.8 30 9.7
2009-04-30 07:43:39 51°17.663 2°53.474 33.5 11.8 30 9.6
2009-04-30 07:43:43 51°17.674 2°53.484 33.3 11.8 30 9.6
2009-04-30 07:43:49 51°17.691 2°53.5 33.1 11.8 29 9.7
2009-04-30 07:43:54 51°17.706 2°53.513 33.2 11.8 30 9.7
2009-04-30 07:43:59 51°17.72 2°53.525 33.6 11.9 29 9.7
2009-04-30 07:44:04 51°17.734 2°53.538 33.2 11.8 29 9.7
2009-04-30 07:44:09 51°17.749 2°53.551 33.4 11.8 29 9.7
2009-04-30 07:44:14 51°17.763 2°53.564 33.4 11.8 29 9.7
2009-04-30 07:44:19 51°17.777 2°53.576 33.3 11.8 29 9.8
2009-04-30 07:44:24 51°17.791 2°53.589 33.5 11.8 29 9.8
2009-04-30 07:44:29 51°17.806 2°53.602 33.5 11.8 29 9.8
2009-04-30 07:44:34 51°17.82 2°53.614 33 11.8 29 9.8
2009-04-30 07:44:39 51°17.834 2°53.628 33.7 11.8 30 9.8
2009-04-30 07:44:44 51°17.848 2°53.641 34.1 11.8 30 9.8
2009-04-30 07:44:49 51°17.862 2°53.654 34.8 11.8 31 9.8
2009-04-30 07:44:54 51°17.876 2°53.667 34.8 11.8 30 9.9
2009-04-30 07:44:59 51°17.891 2°53.681 34.7 11.8 31 9.9
2009-04-30 07:45:03 51°17.902 2°53.691 34.9 11.8 31 9.8
2009-04-30 07:45:09 51°17.919 2°53.707 35.1 11.8 31 9.9
2009-04-30 07:45:14 51°17.933 2°53.72 34.5 11.8 28 9.9
2009-04-30 07:45:19 51°17.947 2°53.733 33.5 11.8 30 9.9
2009-04-30 07:45:24 51°17.962 2°53.745 33.1 11.8 28 9.9
2009-04-30 07:45:29 51°17.976 2°53.757 32.7 11.8 28 10
2009-04-30 07:45:34 51°17.991 2°53.769 32 11.7 27 10
2009-04-30 07:45:39 51°18.005 2°53.781 31.6 11.8 28 10
2009-04-30 07:45:44 51°18.02 2°53.794 32 11.8 28 10
2009-04-30 07:45:49 51°18.034 2°53.806 32.4 11.8 29 10.1
2009-04-30 07:45:54 51°18.048 2°53.82 33.7 11.8 29 10
2009-04-30 07:45:59 51°18.063 2°53.832 33.5 11.8 29 10
2009-04-30 07:46:04 51°18.077 2°53.845 33.5 11.8 29 10.1
2009-04-30 07:46:09 51°18.091 2°53.858 33.3 11.8 29 10.1
2009-04-30 07:46:14 51°18.105 2°53.87 33.2 11.8 29 10.1
2009-04-30 07:46:19 51°18.119 2°53.884 33.7 11.8 31 10.1
2009-04-30 07:46:24 51°18.133 2°53.897 34.7 11.7 32 10.1
2009-04-30 07:46:29 51°18.146 2°53.913 37.6 11.8 35 10.1
2009-04-30 07:46:34 51°18.16 2°53.927 38 11.7 35 10.2
2009-04-30 07:46:39 51°18.172 2°53.943 40.1 11.7 39 10.2
2009-04-30 07:46:44 51°18.186 2°53.958 40.7 11.7 35 10.1
2009-04-30 07:46:49 51°18.198 2°53.975 41.5 11.7 41 10.2
2009-04-30 07:46:54 51°18.211 2°53.991 42.4 11.7 37 10.2
2009-04-30 07:46:59 51°18.223 2°54.007 42.8 11.7 41 10.2
2009-04-30 07:47:04 51°18.236 2°54.023 43.5 11.7 38 10.2
2009-04-30 07:47:09 51°18.248 2°54.04 43.2 11.7 40 10.3
2009-04-30 07:47:14 51°18.261 2°54.057 43.6 11.7 40 10.3
2009-04-30 07:47:19 51°18.273 2°54.073 43.9 11.7 40 10.3
2009-04-30 07:47:23 51°18.283 2°54.087 44.4 11.6 41 10.3
2009-04-30 07:47:29 51°18.298 2°54.107 44.4 11.6 40 10.3
2009-04-30 07:47:34 51°18.31 2°54.124 44.4 11.7 41 10.4
2009-04-30 07:47:39 51°18.322 2°54.14 44.4 11.6 40 10.3
2009-04-30 07:47:44 51°18.334 2°54.157 44.5 11.5 41 10.3
2009-04-30 07:47:49 51°18.346 2°54.174 44.7 11.5 40 10.3
2009-04-30 07:47:54 51°18.358 2°54.19 44.5 11.5 42 10.3
2009-04-30 07:47:59 51°18.37 2°54.207 45.6 11.5 42 10.4
2009-04-30 07:48:03 51°18.38 2°54.22 45.3 11.5 41 10.4
2009-04-30 07:48:09 51°18.394 2°54.241 46 11.5 43 10.4
2009-04-30 07:48:14 51°18.406 2°54.258 46.1 11.5 44 10.4
2009-04-30 07:48:19 51°18.417 2°54.276 46.9 11.4 43 10.4
2009-04-30 07:48:24 51°18.428 2°54.294 47.7 11.5 46 10.4
2009-04-30 07:48:29 51°18.439 2°54.312 48.6 11.4 45 10.4
2009-04-30 07:48:34 51°18.45 2°54.331 49.4 11.4 47 10.4
2009-04-30 07:48:39 51°18.461 2°54.349 50 11.4 47 10.5
2009-04-30 07:48:44 51°18.47 2°54.369 52 11.4 52 10.5
2009-04-30 07:48:49 51°18.48 2°54.389 54.1 11.4 53 10.5
2009-04-30 07:48:54 51°18.489 2°54.409 56.3 11.3 55 10.5
2009-04-30 07:48:59 51°18.498 2°54.429 58 11.3 55 10.6
2009-04-30 07:49:03 51°18.505 2°54.446 59.4 11.3 58 10.5
2009-04-30 07:49:09 51°18.515 2°54.472 60.4 11.4 58 10.5
2009-04-30 07:49:14 51°18.522 2°54.494 61.8 11.3 60 10.5
2009-04-30 07:49:19 51°18.53 2°54.515 62.2 11.3 59 10.5
2009-04-30 07:49:24 51°18.538 2°54.537 63 11.3 61 10.5
2009-04-30 07:49:29 51°18.546 2°54.559 63.8 11.4 62 10.5
2009-04-30 07:49:34 51°18.553 2°54.582 63.9 11.3 61 10.5
2009-04-30 07:49:39 51°18.56 2°54.604 64.5 11.3 63 10.5
2009-04-30 07:49:44 51°18.567 2°54.626 65.2 11.4 62 10.5
2009-04-30 07:49:49 51°18.575 2°54.649 65.1 11.4 63 10.6
2009-04-30 07:49:54 51°18.582 2°54.671 65 11.4 62 10.5
2009-04-30 07:49:59 51°18.59 2°54.693 64.7 11.5 61 10.5
2009-04-30 07:50:04 51°18.598 2°54.715 64.3 11.4 62 10.4
2009-04-30 07:50:09 51°18.606 2°54.737 64.5 11.5 60 10.6
2009-04-30 07:50:14 51°18.614 2°54.759 64.1 11.5 61 10.6
2009-04-30 07:50:19 51°18.621 2°54.782 64.3 11.6 62 10.5
2009-04-30 07:50:23 51°18.627 2°54.8 65 11.6 62 10.6
2009-04-30 07:50:29 51°18.636 2°54.827 65.8 11.5 63 10.6
2009-04-30 07:50:34 51°18.644 2°54.849 66.1 11.6 62 10.5
2009-04-30 07:50:39 51°18.651 2°54.872 65.4 11.6 63 10.5
2009-04-30 07:50:44 51°18.659 2°54.895 65.6 11.5 62 10.6
2009-04-30 07:50:49 51°18.667 2°54.917 65.4 11.6 62 10.6
2009-04-30 07:50:54 51°18.674 2°54.94 66.1 11.6 64 10.6
2009-04-30 07:50:59 51°18.681 2°54.963 66.6 11.5 63 10.6
2009-04-30 07:51:04 51°18.688 2°54.986 67.2 11.5 65 10.6
2009-04-30 07:51:09 51°18.695 2°55.009 68 11.6 64 10.6
2009-04-30 07:51:14 51°18.702 2°55.032 67.6 11.5 65 10.6
2009-04-30 07:51:19 51°18.708 2°55.055 68.3 11.5 65 10.6
2009-04-30 07:51:24 51°18.715 2°55.079 68.7 11.5 65 10.5
2009-04-30 07:51:29 51°18.721 2°55.102 68.8 11.5 65 10.5
2009-04-30 07:51:34 51°18.728 2°55.125 68.8 11.4 66 10.6
2009-04-30 07:51:39 51°18.735 2°55.148 69 11.5 66 10.4
2009-04-30 07:51:43 51°18.74 2°55.166 68.3 11.5 64 10.4
2009-04-30 07:51:49 51°18.748 2°55.194 68.5 11.4 66 10.5
2009-04-30 07:51:54 51°18.755 2°55.217 68.8 11.5 65 10.5
2009-04-30 07:51:59 51°18.761 2°55.24 68.6 11.5 65 10.6
2009-04-30 07:52:03 51°18.766 2°55.258 68.5 11.5 66 10.4
2009-04-30 07:52:09 51°18.774 2°55.286 68.7 11.5 65 10.6
2009-04-30 07:52:14 51°18.781 2°55.309 68.3 11.4 65 10.6
2009-04-30 07:52:19 51°18.788 2°55.332 67.9 11.5 65 10.5
2009-04-30 07:52:23 51°18.794 2°55.35 67.9 11.5 65 10.5
2009-04-30 07:52:29 51°18.801 2°55.378 68.2 11.5 65 10.4
2009-04-30 07:52:34 51°18.808 2°55.401 68.2 11.5 65 10.4
2009-04-30 07:52:39 51°18.815 2°55.424 68.2 11.5 65 10.4
2009-04-30 07:52:43 51°18.82 2°55.442 67.9 11.5 65 10.5
2009-04-30 07:52:49 51°18.828 2°55.47 68.4 11.5 66 10.4
2009-04-30 07:52:54 51°18.835 2°55.493 68.3 11.5 63 10.6
2009-04-30 07:52:59 51°18.842 2°55.516 68 11.4 66 10.4
2009-04-30 07:53:04 51°18.849 2°55.539 67.9 11.5 64 10.4
2009-04-30 07:53:09 51°18.855 2°55.562 67.6 11.5 65 10.4
2009-04-30 07:53:14 51°18.862 2°55.584 67.7 11.4 64 10.4
2009-04-30 07:53:18 51°18.868 2°55.602 68.1 11.4 65 10.5
2009-04-30 07:53:24 51°18.876 2°55.63 67.8 11.5 64 10.4
2009-04-30 07:53:29 51°18.883 2°55.653 67.5 11.5 64 10.3
2009-04-30 07:53:34 51°18.89 2°55.676 67.6 11.5 65 10.3
2009-04-30 07:53:39 51°18.897 2°55.699 68 11.5 64 10.3
2009-04-30 07:53:44 51°18.904 2°55.722 67.7 11.4 65 10.5
2009-04-30 07:53:49 51°18.91 2°55.745 68.5 11.4 65 10.3
2009-04-30 07:53:54 51°18.917 2°55.767 67.9 11.4 64 10.4
2009-04-30 07:53:59 51°18.924 2°55.79 67.8 11.3 64 10.3
2009-04-30 07:54:03 51°18.93 2°55.808 67.6 11.3 64 10.3
2009-04-30 07:54:09 51°18.938 2°55.836 67.6 11.4 64 10.2
2009-04-30 07:54:14 51°18.945 2°55.858 67.3 11.3 64 10.2
2009-04-30 07:54:19 51°18.951 2°55.881 67.6 11.3 65 10.2
2009-04-30 07:54:24 51°18.958 2°55.903 67.6 11.4 64 10.4
2009-04-30 07:54:29 51°18.965 2°55.926 67.4 11.4 64 10.4
2009-04-30 07:54:34 51°18.972 2°55.949 67.4 11.4 64 10.4
2009-04-30 07:54:39 51°18.978 2°55.971 67.9 11.3 65 10.4
2009-04-30 07:54:43 51°18.984 2°55.99 69 11.4 66 10.3
2009-04-30 07:54:49 51°18.992 2°56.017 68.9 11.4 65 10.3
2009-04-30 07:54:54 51°18.998 2°56.04 69.5 11.4 67 10.3
2009-04-30 07:54:59 51°19.004 2°56.064 69.9 11.3 66 10.4
2009-04-30 07:55:03 51°19.009 2°56.082 69.9 11.4 67 10.3
2009-04-30 07:55:09 51°19.016 2°56.11 70.4 11.3 67 10.3
2009-04-30 07:55:14 51°19.022 2°56.133 70.4 11.4 68 10.2
2009-04-30 07:55:19 51°19.029 2°56.156 70.6 11.4 66 10.2
2009-04-30 07:55:24 51°19.035 2°56.18 69.8 11.3 68 10.2
2009-04-30 07:55:29 51°19.041 2°56.203 70.5 11.4 67 10.3
2009-04-30 07:55:34 51°19.047 2°56.226 69.9 11.4 66 10.2
2009-04-30 07:55:39 51°19.053 2°56.249 69.4 11.4 67 10.3
2009-04-30 07:55:44 51°19.06 2°56.272 69.9 11.4 66 10.1
2009-04-30 07:55:49 51°19.066 2°56.295 69.4 11.4 65 10.1
2009-04-30 07:55:54 51°19.073 2°56.318 68.7 11.4 65 10.2
2009-04-30 07:55:59 51°19.08 2°56.34 68.7 11.4 65 10.2
2009-04-30 07:56:04 51°19.086 2°56.363 68.3 11.4 65 10.1
2009-04-30 07:56:09 51°19.093 2°56.386 68.4 11.4 65 10.1
2009-04-30 07:56:14 51°19.1 2°56.409 68.8 11.4 64 10.2
2009-04-30 07:56:19 51°19.107 2°56.431 68 11.3 64 10.1
2009-04-30 07:56:23 51°19.112 2°56.449 67.6 11.3 64 10.1
2009-04-30 07:56:29 51°19.121 2°56.476 66.7 11.4 62 10.1
2009-04-30 07:56:34 51°19.128 2°56.498 66.6 11.2 65 10.1
2009-04-30 07:56:39 51°19.135 2°56.521 67.1 11.3 63 10.1
2009-04-30 07:56:43 51°19.14 2°56.539 66.9 11.3 64 10
2009-04-30 07:56:49 51°19.149 2°56.565 66.2 11.2 63 10
2009-04-30 07:56:54 51°19.156 2°56.588 66.4 11.2 65 10
2009-04-30 07:56:59 51°19.163 2°56.61 67 11.2 64 9.9
2009-04-30 07:57:03 51°19.168 2°56.628 67.6 11.2 64 10
2009-04-30 07:57:09 51°19.176 2°56.655 68.3 11.3 65 9.9
2009-04-30 07:57:14 51°19.183 2°56.678 68.2 11.3 65 9.9
2009-04-30 07:57:19 51°19.19 2°56.7 68.2 11.3 65 9.8
2009-04-30 07:57:24 51°19.196 2°56.723 69 11.3 66 10
2009-04-30 07:57:29 51°19.203 2°56.745 68.5 11.3 64 9.9
2009-04-30 07:57:34 51°19.21 2°56.768 67.8 11.3 64 9.8
2009-04-30 07:57:39 51°19.216 2°56.791 68.3 11.3 65 10
2009-04-30 07:57:44 51°19.223 2°56.813 68.3 11.3 65 9.9
2009-04-30 07:57:49 51°19.23 2°56.836 68.3 11.3 65 9.7
2009-04-30 07:57:54 51°19.236 2°56.859 68.3 11.3 65 9.9
2009-04-30 07:57:59 51°19.242 2°56.882 68.7 11.4 66 9.9
2009-04-30 07:58:04 51°19.249 2°56.904 68.9 11.3 65 9.8
2009-04-30 07:58:09 51°19.256 2°56.927 68.6 11.3 65 9.8
2009-04-30 07:58:14 51°19.262 2°56.949 68.6 11.3 65 9.8
2009-04-30 07:58:19 51°19.269 2°56.972 68.6 11.3 65 9.8
2009-04-30 07:58:23 51°19.275 2°56.991 68.4 11.4 64 9.7
2009-04-30 07:58:29 51°19.283 2°57.018 68.2 11.4 65 9.7
2009-04-30 07:58:34 51°19.29 2°57.04 68.1 11.4 63 9.7
2009-04-30 07:58:39 51°19.297 2°57.063 67.6 11.4 64 9.7
2009-04-30 07:58:43 51°19.302 2°57.081 67.2 11.4 63 9.8
2009-04-30 07:58:49 51°19.311 2°57.108 67.6 11.3 64 9.7
2009-04-30 07:58:54 51°19.318 2°57.131 67.7 11.3 64 9.7
2009-04-30 07:58:59 51°19.325 2°57.153 67.6 11.3 63 9.7
2009-04-30 07:59:03 51°19.331 2°57.17 66.9 11.3 62 9.8
2009-04-30 07:59:09 51°19.339 2°57.197 66.5 11.3 63 9.7
2009-04-30 07:59:14 51°19.346 2°57.219 66.2 11.3 63 9.6
2009-04-30 07:59:19 51°19.353 2°57.242 66.8 11.3 63 9.8
2009-04-30 07:59:23 51°19.359 2°57.26 66.9 11.3 64 9.6
2009-04-30 07:59:29 51°19.367 2°57.286 67.1 11.2 64 9.6
2009-04-30 07:59:34 51°19.374 2°57.308 66.8 11.2 63 9.6
2009-04-30 07:59:39 51°19.381 2°57.33 66.8 11.2 64 9.7
2009-04-30 07:59:44 51°19.388 2°57.353 66.8 11.2 63 9.6
2009-04-30 07:59:49 51°19.395 2°57.375 67.4 11.2 64 9.7
2009-04-30 07:59:54 51°19.402 2°57.397 67.6 11.2 64 9.7
2009-04-30 07:59:59 51°19.409 2°57.419 67.6 11.2 64 9.6
2009-04-30 08:00:04 51°19.415 2°57.442 67.6 11.2 64 9.6
2009-04-30 08:00:09 51°19.422 2°57.464 67.9 11.2 64 9.6
2009-04-30 08:00:14 51°19.429 2°57.486 67.8 11.2 65 9.6
2009-04-30 08:00:19 51°19.436 2°57.509 68.4 11.3 64 9.6
2009-04-30 08:00:24 51°19.442 2°57.531 69 11.3 66 9.5
2009-04-30 08:00:29 51°19.448 2°57.554 69.6 11.2 65 9.5
2009-04-30 08:00:34 51°19.454 2°57.576 69.9 11.2 66 9.5
2009-04-30 08:00:39 51°19.461 2°57.599 69.8 11.2 65 9.5
2009-04-30 08:00:44 51°19.467 2°57.621 69 11.2 65 9.4
2009-04-30 08:00:49 51°19.474 2°57.644 68.5 11.2 64 9.4
2009-04-30 08:00:54 51°19.481 2°57.666 68.3 11.1 64 9.4
2009-04-30 08:00:59 51°19.488 2°57.688 68.1 11.1 64 9.5
2009-04-30 08:01:04 51°19.494 2°57.71 68.1 11.1 64 9.5
2009-04-30 08:01:09 51°19.501 2°57.732 67.9 11.1 63 9.5
2009-04-30 08:01:14 51°19.508 2°57.754 68.2 11.1 64 9.5
2009-04-30 08:01:19 51°19.515 2°57.776 67.9 11.1 63 9.5
2009-04-30 08:01:23 51°19.52 2°57.794 67.9 11.1 65 9.5
2009-04-30 08:01:29 51°19.528 2°57.821 68.7 11.1 65 9.6
2009-04-30 08:01:34 51°19.534 2°57.843 68.8 11.1 66 9.6
2009-04-30 08:01:39 51°19.54 2°57.866 69 11.1 66 9.5
2009-04-30 08:01:44 51°19.546 2°57.888 69.8 11 67 9.5
2009-04-30 08:01:49 51°19.552 2°57.91 70 11 67 9.5
2009-04-30 08:01:54 51°19.558 2°57.933 70.5 11.1 68 9.5
2009-04-30 08:01:59 51°19.565 2°57.955 70.5 11.1 66 9.4
2009-04-30 08:02:04 51°19.571 2°57.978 70.5 11.1 67 9.4
2009-04-30 08:02:09 51°19.577 2°58 70.7 11 66 9.4
2009-04-30 08:02:14 51°19.582 2°58.023 70.6 10.9 67 9.5
2009-04-30 08:02:19 51°19.588 2°58.045 70.8 11 68 9.4
2009-04-30 08:02:23 51°19.593 2°58.063 71.2 11 68 9.4
2009-04-30 08:02:29 51°19.6 2°58.09 71 11 68 9.4
2009-04-30 08:02:34 51°19.606 2°58.113 70.7 10.9 68 9.4
2009-04-30 08:02:39 51°19.611 2°58.136 71.1 11 68 9.4
2009-04-30 08:02:44 51°19.617 2°58.158 71.2 11 68 9.5
2009-04-30 08:02:49 51°19.623 2°58.181 71.3 11 68 9.5
2009-04-30 08:02:54 51°19.629 2°58.203 70.9 11 67 9.3
2009-04-30 08:02:59 51°19.635 2°58.226 70.8 11 68 9.3
2009-04-30 08:03:04 51°19.641 2°58.248 70.8 11 68 9.3
2009-04-30 08:03:09 51°19.647 2°58.27 70.7 10.9 68 9.3
2009-04-30 08:03:14 51°19.652 2°58.293 71.1 11 67 9.3
2009-04-30 08:03:19 51°19.658 2°58.316 71.2 11 68 9.3
2009-04-30 08:03:23 51°19.663 2°58.334 71.2 11 68 9.3
2009-04-30 08:03:29 51°19.67 2°58.361 71.2 11.1 68 9.3
2009-04-30 08:03:34 51°19.676 2°58.383 71.2 11.1 67 9.2
2009-04-30 08:03:39 51°19.681 2°58.407 71.1 11.1 68 9.2
2009-04-30 08:03:43 51°19.686 2°58.425 71.3 11.1 68 9.3
2009-04-30 08:03:49 51°19.693 2°58.453 72.7 11.2 69 9.4
2009-04-30 08:03:54 51°19.699 2°58.476 72.2 11.2 68 9.4
2009-04-30 08:03:59 51°19.705 2°58.498 71.7 11.1 68 9.2
2009-04-30 08:04:04 51°19.711 2°58.521 71.7 11 68 9.2
2009-04-30 08:04:09 51°19.717 2°58.544 71.6 11.1 67 9.2
2009-04-30 08:04:14 51°19.722 2°58.567 71.1 11.1 68 9.2
2009-04-30 08:04:19 51°19.728 2°58.59 71.5 11.1 68 9.1
2009-04-30 08:04:24 51°19.734 2°58.612 70.8 11.1 67 9.2
2009-04-30 08:04:29 51°19.74 2°58.635 71.1 11.1 68 9.2
2009-04-30 08:04:34 51°19.746 2°58.658 71.1 11.1 67 9.2
2009-04-30 08:04:39 51°19.752 2°58.68 70.7 11.1 68 9.2
2009-04-30 08:04:44 51°19.758 2°58.703 71.5 11.1 68 9.1
2009-04-30 08:04:49 51°19.764 2°58.726 71.1 11.1 67 9.1
2009-04-30 08:04:54 51°19.77 2°58.749 71.2 11.1 68 9.1
2009-04-30 08:04:59 51°19.776 2°58.771 70.5 11.1 67 9.1
2009-04-30 08:05:03 51°19.781 2°58.79 71.2 11.1 68 9.2
2009-04-30 08:05:09 51°19.788 2°58.817 71 11.1 67 9.2
2009-04-30 08:05:14 51°19.794 2°58.839 71 11.1 68 9.1
2009-04-30 08:05:19 51°19.8 2°58.862 71.5 11.1 68 9.2
2009-04-30 08:05:24 51°19.805 2°58.885 71.4 11.1 68 9.1
2009-04-30 08:05:29 51°19.812 2°58.907 71.1 11.1 67 9.3
2009-04-30 08:05:34 51°19.818 2°58.93 71 11.1 68 9.1
2009-04-30 08:05:39 51°19.824 2°58.952 70.8 11.1 66 9.2
2009-04-30 08:05:43 51°19.829 2°58.97 70.8 11 67 9.2
2009-04-30 08:05:49 51°19.836 2°58.997 71.1 11 66 9.1
2009-04-30 08:05:54 51°19.842 2°59.019 70.6 11 67 9.2
2009-04-30 08:05:59 51°19.848 2°59.042 71.2 11.1 68 9.1
2009-04-30 08:06:03 51°19.852 2°59.06 71.6 11 67 9.1
2009-04-30 08:06:09 51°19.859 2°59.087 72.6 10.9 70 9.2
2009-04-30 08:06:14 51°19.865 2°59.109 71.9 11 65 9.1
2009-04-30 08:06:19 51°19.871 2°59.132 71.2 11 69 9.1
2009-04-30 08:06:24 51°19.877 2°59.154 71.8 11 67 9.2
2009-04-30 08:06:29 51°19.883 2°59.176 70.7 11 66 9.3
2009-04-30 08:06:34 51°19.889 2°59.199 71 11 67 9.3
2009-04-30 08:06:39 51°19.895 2°59.221 71.2 11 67 9.2
2009-04-30 08:06:43 51°19.9 2°59.239 71 10.9 67 9.2
2009-04-30 08:06:49 51°19.907 2°59.266 71.3 10.9 68 9.3
2009-04-30 08:06:54 51°19.913 2°59.288 71.2 10.9 66 9.2
2009-04-30 08:06:59 51°19.919 2°59.31 70.6 11 67 9.2
2009-04-30 08:07:04 51°19.925 2°59.333 71.5 11 67 9.2
2009-04-30 08:07:09 51°19.931 2°59.355 71.1 11 67 9.2
2009-04-30 08:07:14 51°19.936 2°59.377 70.8 10.9 68 9.2
2009-04-30 08:07:19 51°19.942 2°59.4 71.5 11 67 9.2
2009-04-30 08:07:24 51°19.948 2°59.422 71.1 11 67 9.2
2009-04-30 08:07:29 51°19.954 2°59.444 71 11 67 9.2
2009-04-30 08:07:34 51°19.96 2°59.466 70.9 11 66 9.3
2009-04-30 08:07:39 51°19.966 2°59.488 70.5 11 66 9.3
2009-04-30 08:07:43 51°19.971 2°59.506 71 11 66 9.1
2009-04-30 08:07:49 51°19.979 2°59.532 70.4 10.9 65 9.1
2009-04-30 08:07:54 51°19.985 2°59.555 70.8 10.9 67 9.1
2009-04-30 08:07:59 51°19.991 2°59.577 71.2 11.1 65 9.2
2009-04-30 08:08:03 51°19.996 2°59.595 70.3 10.9 66 9.2
2009-04-30 08:08:09 51°20.002 2°59.622 71.6 11 67 9.3
2009-04-30 08:08:14 51°20.008 2°59.645 71.4 11 67 9.3
2009-04-30 08:08:19 51°20.014 2°59.667 71 11 67 9.2
2009-04-30 08:08:24 51°20.02 2°59.689 71.1 11 66 9.3
2009-04-30 08:08:29 51°20.026 2°59.711 70.7 10.9 66 9.3
2009-04-30 08:08:34 51°20.032 2°59.734 70.8 11 67 9.3
2009-04-30 08:08:39 51°20.039 2°59.756 70.2 11 66 9.2
2009-04-30 08:08:44 51°20.044 2°59.778 71.1 10.9 67 9.2
2009-04-30 08:08:49 51°20.05 2°59.8 70.8 11 66 9.2
2009-04-30 08:08:54 51°20.057 2°59.822 70 10.9 66 9.2
2009-04-30 08:08:59 51°20.062 2°59.845 70.9 10.9 68 9.2
2009-04-30 08:09:04 51°20.069 2°59.867 71 10.9 66 9.2
2009-04-30 08:09:09 51°20.074 2°59.889 71.4 10.9 68 9.2
2009-04-30 08:09:14 51°20.08 2°59.911 71.2 10.9 66 9.2
2009-04-30 08:09:19 51°20.086 2°59.933 71 10.9 67 9.2
2009-04-30 08:09:24 51°20.092 2°59.955 71.5 10.9 68 9.2
2009-04-30 08:09:29 51°20.097 2°59.978 71.6 10.9 66 9.3
2009-04-30 08:09:34 51°20.104 2°60 70.8 10.9 68 9.2
2009-04-30 08:09:39 51°20.109 3°0.022 71.9 10.9 69 9.2
2009-04-30 08:09:44 51°20.115 3°0.045 71.5 11 66 9.2
2009-04-30 08:09:49 51°20.121 3°0.067 70.8 10.8 68 9.2
2009-04-30 08:09:54 51°20.127 3°0.089 71.8 10.9 68 9.2
2009-04-30 08:09:59 51°20.133 3°0.111 71.2 10.9 66 9.2
2009-04-30 08:10:03 51°20.138 3°0.129 71 10.9 68 9.2
2009-04-30 08:10:09 51°20.144 3°0.156 71.6 10.8 69 9.2
2009-04-30 08:10:14 51°20.149 3°0.178 73.1 10.9 69 9.2
2009-04-30 08:10:19 51°20.155 3°0.201 72.7 10.9 68 9.2
2009-04-30 08:10:23 51°20.159 3°0.219 73.6 10.9 71 9.2
2009-04-30 08:10:29 51°20.165 3°0.246 73.8 11 69 9.2
2009-04-30 08:10:34 51°20.171 3°0.269 73.3 10.9 70 9.2
2009-04-30 08:10:39 51°20.176 3°0.292 73.5 10.9 70 9.2
2009-04-30 08:10:44 51°20.181 3°0.314 73.8 10.9 70 9.2
2009-04-30 08:10:49 51°20.187 3°0.337 73.4 10.9 68 9.2
2009-04-30 08:10:54 51°20.193 3°0.359 72.3 10.9 69 9.1
2009-04-30 08:10:59 51°20.198 3°0.382 72 10.9 68 9.2
2009-04-30 08:11:03 51°20.203 3°0.399 71.1 10.8 67 9.2
2009-04-30 08:11:09 51°20.21 3°0.426 71.4 10.9 67 9.1
2009-04-30 08:11:14 51°20.216 3°0.448 71.1 10.9 67 9.1
2009-04-30 08:11:19 51°20.222 3°0.47 71.2 10.9 68 9.2
2009-04-30 08:11:24 51°20.228 3°0.492 70.5 10.8 66 9.2
2009-04-30 08:11:29 51°20.234 3°0.514 70.5 10.8 67 9.1
2009-04-30 08:11:34 51°20.24 3°0.536 70.5 10.8 66 9.2
2009-04-30 08:11:39 51°20.246 3°0.558 70.2 10.8 67 9.1
2009-04-30 08:11:44 51°20.252 3°0.58 70.4 10.8 66 9.1
2009-04-30 08:11:49 51°20.258 3°0.602 70.5 10.8 67 9.1
2009-04-30 08:11:54 51°20.264 3°0.624 70.5 10.9 66 9.1
2009-04-30 08:11:59 51°20.27 3°0.646 70.5 10.8 67 9.2
2009-04-30 08:12:04 51°20.276 3°0.668 71 10.8 67 9.1
2009-04-30 08:12:09 51°20.281 3°0.69 71.2 10.9 67 9.1
2009-04-30 08:12:14 51°20.287 3°0.713 71.2 10.9 66 9.1
2009-04-30 08:12:19 51°20.293 3°0.735 70.8 10.8 68 9.1
2009-04-30 08:12:23 51°20.298 3°0.752 71 10.9 66 9.1
2009-04-30 08:12:29 51°20.305 3°0.779 70.8 10.8 67 9.1
2009-04-30 08:12:34 51°20.311 3°0.801 71.1 10.9 67 9.1
2009-04-30 08:12:39 51°20.316 3°0.823 70.7 10.8 67 9.2
2009-04-30 08:12:43 51°20.321 3°0.841 70.7 10.8 68 9.2
2009-04-30 08:12:49 51°20.328 3°0.867 71.3 10.8 67 9.2
2009-04-30 08:12:54 51°20.334 3°0.889 71 10.8 67 9.2
2009-04-30 08:12:59 51°20.339 3°0.912 70.8 10.8 68 9.3
2009-04-30 08:13:04 51°20.345 3°0.934 71.2 10.8 67 9.2
2009-04-30 08:13:09 51°20.351 3°0.956 71.2 10.8 67 9.2
2009-04-30 08:13:14 51°20.357 3°0.978 71.1 10.8 67 9.1
2009-04-30 08:13:19 51°20.362 3°1 71.2 10.8 68 9.1
2009-04-30 08:13:23 51°20.367 3°1.017 71.3 10.8 68 9.1
2009-04-30 08:13:29 51°20.374 3°1.044 70.7 10.8 67 9.1
2009-04-30 08:13:34 51°20.379 3°1.066 71.1 10.7 69 9.1
2009-04-30 08:13:39 51°20.385 3°1.088 71.6 10.8 67 9.1
2009-04-30 08:13:44 51°20.391 3°1.11 71.1 10.8 68 9.1
2009-04-30 08:13:49 51°20.396 3°1.132 71.1 10.8 68 9.1
2009-04-30 08:13:54 51°20.401 3°1.154 71.7 10.8 67 9.1
2009-04-30 08:13:59 51°20.407 3°1.176 71.2 10.8 68 9.1
2009-04-30 08:14:04 51°20.413 3°1.199 71.2 10.8 68 9.1
2009-04-30 08:14:09 51°20.418 3°1.221 71.9 10.8 70 9.1
2009-04-30 08:14:14 51°20.423 3°1.243 72.6 10.8 70 9.1
2009-04-30 08:14:19 51°20.428 3°1.265 73.1 10.8 69 9.1
2009-04-30 08:14:23 51°20.433 3°1.283 72.5 10.8 69 9.1
2009-04-30 08:14:29 51°20.439 3°1.31 71.9 10.8 68 9
2009-04-30 08:14:34 51°20.445 3°1.332 71.5 10.8 68 9
2009-04-30 08:14:39 51°20.451 3°1.354 70.9 10.8 67 9.1
2009-04-30 08:14:43 51°20.455 3°1.371 70.6 10.7 69 9
2009-04-30 08:14:49 51°20.462 3°1.398 71.3 10.8 68 9
2009-04-30 08:14:54 51°20.467 3°1.42 71.3 10.8 68 9
2009-04-30 08:14:59 51°20.473 3°1.442 71.7 10.8 69 9
2009-04-30 08:15:04 51°20.479 3°1.464 71.7 10.7 67 9
2009-04-30 08:15:09 51°20.484 3°1.486 71.3 10.8 68 9
2009-04-30 08:15:14 51°20.49 3°1.508 71 10.7 67 9
2009-04-30 08:15:19 51°20.495 3°1.53 70.8 10.7 68 9
2009-04-30 08:15:23 51°20.5 3°1.548 71.2 10.8 67 9
2009-04-30 08:15:29 51°20.507 3°1.574 70.8 10.8 68 9
2009-04-30 08:15:34 51°20.513 3°1.596 70.9 10.7 67 9
2009-04-30 08:15:39 51°20.518 3°1.618 71 10.7 68 9
2009-04-30 08:15:44 51°20.524 3°1.64 71.3 10.8 68 9
2009-04-30 08:15:49 51°20.53 3°1.662 71.1 10.7 68 9
2009-04-30 08:15:54 51°20.535 3°1.684 71.2 10.8 68 9.1
2009-04-30 08:15:59 51°20.541 3°1.706 71.6 10.8 68 9
2009-04-30 08:16:04 51°20.546 3°1.729 72.2 10.8 70 9
2009-04-30 08:16:09 51°20.551 3°1.751 72.6 10.7 70 9
2009-04-30 08:16:14 51°20.556 3°1.773 73.4 10.8 70 8.9
2009-04-30 08:16:19 51°20.562 3°1.796 73.2 10.8 68 8.9
2009-04-30 08:16:24 51°20.567 3°1.818 72.3 10.7 70 9
2009-04-30 08:16:29 51°20.572 3°1.84 72.2 10.7 68 9
2009-04-30 08:16:34 51°20.578 3°1.862 71.4 10.7 68 9
2009-04-30 08:16:39 51°20.584 3°1.884 71.2 10.7 67 8.9
2009-04-30 08:16:43 51°20.589 3°1.902 71 10.8 67 9
2009-04-30 08:16:49 51°20.595 3°1.928 70.6 10.7 68 9
2009-04-30 08:16:54 51°20.601 3°1.95 71 10.7 68 9
2009-04-30 08:16:59 51°20.607 3°1.972 70.8 10.7 67 9
2009-04-30 08:17:03 51°20.611 3°1.989 70.5 10.7 67 9
2009-04-30 08:17:09 51°20.619 3°2.016 70.4 10.7 67 9
2009-04-30 08:17:14 51°20.624 3°2.038 70.5 10.7 67 9
2009-04-30 08:17:19 51°20.63 3°2.06 70.5 10.7 67 9
2009-04-30 08:17:24 51°20.636 3°2.082 70.6 10.7 68 9
2009-04-30 08:17:29 51°20.642 3°2.103 70.8 10.7 67 9
2009-04-30 08:17:34 51°20.647 3°2.126 70.6 10.7 68 9
2009-04-30 08:17:39 51°20.653 3°2.147 70.9 10.7 67 9
2009-04-30 08:17:43 51°20.658 3°2.165 71 10.7 67 8.9
2009-04-30 08:17:49 51°20.664 3°2.191 70.5 10.7 67 9
2009-04-30 08:17:54 51°20.67 3°2.213 70.6 10.7 68 9
2009-04-30 08:17:59 51°20.676 3°2.235 70.8 10.7 66 9
2009-04-30 08:18:04 51°20.682 3°2.257 70.7 10.7 68 9
2009-04-30 08:18:09 51°20.687 3°2.279 70.7 10.6 68 8.9
2009-04-30 08:18:14 51°20.693 3°2.301 71.1 10.6 68 8.9
2009-04-30 08:18:19 51°20.698 3°2.322 71.3 10.7 68 8.9
2009-04-30 08:18:24 51°20.704 3°2.344 70.8 10.7 67 9
2009-04-30 08:18:29 51°20.71 3°2.366 70.8 10.7 67 9
2009-04-30 08:18:34 51°20.715 3°2.388 70.7 10.7 68 9
2009-04-30 08:18:39 51°20.721 3°2.41 70.9 10.7 68 9
2009-04-30 08:18:44 51°20.726 3°2.432 70.9 10.6 68 9
2009-04-30 08:18:49 51°20.732 3°2.454 71.7 10.7 69 9
2009-04-30 08:18:54 51°20.737 3°2.475 70.8 10.7 68 9
2009-04-30 08:18:59 51°20.742 3°2.498 71.7 10.7 69 9
2009-04-30 08:19:03 51°20.747 3°2.515 71.6 10.6 68 9
2009-04-30 08:19:09 51°20.753 3°2.542 71.9 10.7 68 9
2009-04-30 08:19:14 51°20.759 3°2.564 71.7 10.7 69 9
2009-04-30 08:19:19 51°20.764 3°2.586 71.7 10.7 68 9
2009-04-30 08:19:24 51°20.77 3°2.608 71.5 10.7 68 9
2009-04-30 08:19:29 51°20.775 3°2.63 71.5 10.7 68 9
2009-04-30 08:19:34 51°20.781 3°2.652 71.1 10.7 68 9
2009-04-30 08:19:39 51°20.786 3°2.673 71.1 10.7 69 9
2009-04-30 08:19:43 51°20.79 3°2.691 71.4 10.6 68 9
2009-04-30 08:19:49 51°20.797 3°2.717 71.4 10.7 69 9
2009-04-30 08:19:54 51°20.803 3°2.739 71.1 10.7 68 9
2009-04-30 08:19:59 51°20.808 3°2.761 71 10.6 68 9
2009-04-30 08:20:03 51°20.812 3°2.778 71.2 10.7 68 9
2009-04-30 08:20:09 51°20.819 3°2.805 71.1 10.7 69 9
2009-04-30 08:20:14 51°20.825 3°2.827 71 10.7 68 9
2009-04-30 08:20:19 51°20.83 3°2.849 71 10.6 69 9
2009-04-30 08:20:24 51°20.835 3°2.87 71.2 10.7 67 9
2009-04-30 08:20:29 51°20.841 3°2.892 70.7 10.7 69 9
2009-04-30 08:20:34 51°20.846 3°2.914 71.2 10.7 68 9
2009-04-30 08:20:39 51°20.852 3°2.936 71.1 10.7 68 9
2009-04-30 08:20:44 51°20.857 3°2.958 70.8 10.7 68 9
2009-04-30 08:20:49 51°20.863 3°2.98 71.2 10.6 69 9
2009-04-30 08:20:54 51°20.868 3°3.002 71.7 10.6 69 9
2009-04-30 08:20:59 51°20.874 3°3.023 71.2 10.6 68 9
2009-04-30 08:21:03 51°20.878 3°3.041 71.2 10.6 69 9
2009-04-30 08:21:09 51°20.884 3°3.067 71.4 10.6 68 9
2009-04-30 08:21:14 51°20.89 3°3.089 71.3 10.6 69 9
2009-04-30 08:21:19 51°20.895 3°3.111 71.2 10.7 68 9
2009-04-30 08:21:23 51°20.899 3°3.129 71.3 10.6 69 9
2009-04-30 08:21:29 51°20.906 3°3.155 71.6 10.7 70 9
2009-04-30 08:21:34 51°20.911 3°3.177 71.9 10.7 67 9.1
2009-04-30 08:21:39 51°20.916 3°3.199 71.1 10.6 69 9.1
2009-04-30 08:21:44 51°20.922 3°3.221 71.8 10.7 69 9.1
2009-04-30 08:21:49 51°20.927 3°3.243 71.2 10.7 69 9.1
2009-04-30 08:21:54 51°20.933 3°3.265 71.2 10.7 69 9.1
2009-04-30 08:21:59 51°20.938 3°3.288 71.2 10.6 69 9.1
2009-04-30 08:22:03 51°20.943 3°3.305 71.4 10.8 69 9.1
2009-04-30 08:22:09 51°20.949 3°3.332 71.6 10.8 70 9
2009-04-30 08:22:14 51°20.954 3°3.354 72.1 10.7 69 9.1
2009-04-30 08:22:19 51°20.959 3°3.377 73.2 10.7 72 9.1
2009-04-30 08:22:24 51°20.965 3°3.399 71.8 10.7 67 9.1
2009-04-30 08:22:29 51°20.969 3°3.421 72.1 10.7 71 9.1
2009-04-30 08:22:34 51°20.975 3°3.444 72.7 10.7 69 9.1
2009-04-30 08:22:39 51°20.98 3°3.466 72.2 10.7 69 9.2
2009-04-30 08:22:44 51°20.985 3°3.488 72 10.8 69 9.2
2009-04-30 08:22:49 51°20.991 3°3.51 71.3 10.7 68 9.2
2009-04-30 08:22:54 51°20.996 3°3.532 71.7 10.7 70 9.2
2009-04-30 08:22:59 51°21.001 3°3.555 71.9 10.8 68 9.2
2009-04-30 08:23:04 51°21.007 3°3.577 71.1 10.8 69 9.2
2009-04-30 08:23:09 51°21.012 3°3.599 71 10.8 68 9.3
2009-04-30 08:23:14 51°21.018 3°3.621 70.7 10.8 68 9.3
2009-04-30 08:23:19 51°21.024 3°3.643 71.2 10.8 68 9.3
2009-04-30 08:23:24 51°21.029 3°3.665 71.2 10.8 68 9.3
2009-04-30 08:23:29 51°21.035 3°3.687 71 10.7 68 9.3
2009-04-30 08:23:34 51°21.04 3°3.709 71 10.7 67 9.3
2009-04-30 08:23:39 51°21.046 3°3.731 70.5 10.7 68 9.4
2009-04-30 08:23:43 51°21.05 3°3.749 70.5 10.7 68 9.3
2009-04-30 08:23:49 51°21.057 3°3.775 70.4 10.7 69 9.3
2009-04-30 08:23:54 51°21.063 3°3.797 70.9 10.7 68 9.4
2009-04-30 08:23:59 51°21.068 3°3.819 70.9 10.7 68 9.4
2009-04-30 08:24:04 51°21.074 3°3.841 70.7 10.7 68 9.4
2009-04-30 08:24:09 51°21.079 3°3.863 71 10.7 69 9.4
2009-04-30 08:24:14 51°21.084 3°3.886 71.7 10.8 69 9.4
2009-04-30 08:24:19 51°21.09 3°3.907 70.9 10.7 67 9.5
2009-04-30 08:24:23 51°21.094 3°3.925 71.7 10.7 70 9.5
2009-04-30 08:24:29 51°21.1 3°3.952 72.2 10.8 69 9.6
2009-04-30 08:24:34 51°21.105 3°3.975 72.4 10.7 70 9.6
2009-04-30 08:24:39 51°21.11 3°3.997 72.8 10.7 70 9.6
2009-04-30 08:24:44 51°21.115 3°4.019 72.7 10.7 70 9.6
2009-04-30 08:24:49 51°21.121 3°4.041 71.9 10.7 69 9.6
2009-04-30 08:24:54 51°21.126 3°4.064 71.8 10.8 70 9.6
2009-04-30 08:24:59 51°21.131 3°4.086 72.2 10.8 70 9.6
2009-04-30 08:25:04 51°21.136 3°4.109 72.8 10.7 72 9.6
2009-04-30 08:25:09 51°21.141 3°4.131 73.4 10.7 70 9.6
2009-04-30 08:25:14 51°21.146 3°4.153 73 10.7 71 9.6
2009-04-30 08:25:19 51°21.151 3°4.176 72.9 10.7 70 9.7
2009-04-30 08:25:24 51°21.156 3°4.198 72.9 10.7 70 9.6
2009-04-30 08:25:29 51°21.162 3°4.22 72.5 10.7 69 9.6
2009-04-30 08:25:34 51°21.167 3°4.242 71.7 10.7 69 9.6
2009-04-30 08:25:39 51°21.172 3°4.264 71.6 10.7 68 9.7
2009-04-30 08:25:44 51°21.178 3°4.286 71.1 10.7 68 9.6
2009-04-30 08:25:49 51°21.184 3°4.308 70.6 10.7 68 9.7
2009-04-30 08:25:54 51°21.189 3°4.33 71.1 10.6 69 9.6
2009-04-30 08:25:59 51°21.194 3°4.353 71.8 10.7 69 9.7
2009-04-30 08:26:04 51°21.2 3°4.375 71.1 10.7 67 9.7
2009-04-30 08:26:09 51°21.206 3°4.397 71 10.7 69 9.7
2009-04-30 08:26:14 51°21.211 3°4.419 71 10.6 67 9.7
2009-04-30 08:26:19 51°21.217 3°4.44 70.6 10.6 68 9.8
2009-04-30 08:26:23 51°21.221 3°4.458 70.5 10.6 68 9.7
2009-04-30 08:26:29 51°21.228 3°4.484 70.2 10.6 68 9.8
2009-04-30 08:26:34 51°21.234 3°4.505 70.8 10.6 66 9.8
2009-04-30 08:26:39 51°21.24 3°4.527 70 10.5 67 9.8
2009-04-30 08:26:44 51°21.245 3°4.548 70.5 10.5 68 9.7
2009-04-30 08:26:49 51°21.251 3°4.57 70.4 10.5 66 9.9
2009-04-30 08:26:54 51°21.257 3°4.591 70.2 10.5 68 9.9
2009-04-30 08:26:59 51°21.262 3°4.613 70.6 10.5 67 9.8
2009-04-30 08:27:04 51°21.267 3°4.635 71.7 10.5 70 9.8
2009-04-30 08:27:09 51°21.273 3°4.656 72.1 10.5 68 9.9
2009-04-30 08:27:14 51°21.278 3°4.678 71.9 10.5 69 9.8
2009-04-30 08:27:19 51°21.283 3°4.7 71.8 10.5 68 9.8
2009-04-30 08:27:24 51°21.289 3°4.721 71 10.5 68 9.8
2009-04-30 08:27:29 51°21.294 3°4.743 71.2 10.5 68 9.8
2009-04-30 08:27:34 51°21.3 3°4.765 70.6 10.5 68 9.8
2009-04-30 08:27:39 51°21.305 3°4.786 71 10.5 68 9.8
2009-04-30 08:27:44 51°21.311 3°4.808 70.7 10.6 67 9.9
2009-04-30 08:27:49 51°21.316 3°4.83 70.8 10.5 68 9.9
2009-04-30 08:27:54 51°21.322 3°4.852 71.2 10.5 69 9.9
2009-04-30 08:27:59 51°21.327 3°4.873 71.5 10.5 70 9.9
2009-04-30 08:28:04 51°21.332 3°4.895 72.1 10.5 70 9.9
2009-04-30 08:28:09 51°21.337 3°4.917 72.2 10.6 71 9.9
2009-04-30 08:28:14 51°21.342 3°4.94 72.9 10.5 70 9.8
2009-04-30 08:28:19 51°21.347 3°4.962 73.1 10.5 71 9.9
2009-04-30 08:28:24 51°21.352 3°4.984 73 10.6 70 9.8
2009-04-30 08:28:29 51°21.357 3°5.005 71.7 10.5 69 9.9
2009-04-30 08:28:34 51°21.361 3°5.027 72.5 10.5 70 10
2009-04-30 08:28:39 51°21.368 3°5.048 71.1 10.5 66 9.8
2009-04-30 08:28:43 51°21.372 3°5.066 70.9 10.4 71 10.1
2009-04-30 08:28:49 51°21.378 3°5.092 71.8 10.5 67 10
2009-04-30 08:28:54 51°21.383 3°5.113 71.3 10.5 70 9.9
2009-04-30 08:28:59 51°21.388 3°5.135 71.9 10.4 69 9.9
2009-04-30 08:29:04 51°21.393 3°5.157 72.5 10.5 71 9.9
2009-04-30 08:29:09 51°21.398 3°5.178 72.9 10.4 69 9.9
2009-04-30 08:29:14 51°21.403 3°5.2 72.7 10.4 71 9.9
2009-04-30 08:29:19 51°21.408 3°5.222 73.1 10.4 70 9.9
2009-04-30 08:29:24 51°21.413 3°5.243 72.7 10.4 69 9.9
2009-04-30 08:29:29 51°21.418 3°5.265 72.6 10.4 70 9.9
2009-04-30 08:29:34 51°21.423 3°5.287 72.7 10.4 69 9.9
2009-04-30 08:29:39 51°21.428 3°5.308 72.6 10.4 69 9.9
2009-04-30 08:29:44 51°21.433 3°5.33 72.5 10.4 69 9.9
2009-04-30 08:29:49 51°21.438 3°5.351 72.4 10.5 69 9.9
2009-04-30 08:29:54 51°21.444 3°5.373 72.4 10.4 70 10
2009-04-30 08:29:59 51°21.448 3°5.395 73 10.4 70 9.9
2009-04-30 08:30:04 51°21.453 3°5.416 73.2 10.5 70 9.9
2009-04-30 08:30:09 51°21.458 3°5.438 72.9 10.5 70 9.9
2009-04-30 08:30:14 51°21.464 3°5.46 72.7 10.5 69 9.8
2009-04-30 08:30:19 51°21.469 3°5.481 72.6 10.5 69 9.9
2009-04-30 08:30:24 51°21.474 3°5.503 72.3 10.5 69 9.9
2009-04-30 08:30:29 51°21.479 3°5.525 72.3 10.5 69 10
2009-04-30 08:30:34 51°21.484 3°5.547 72.3 10.5 70 9.9
2009-04-30 08:30:39 51°21.489 3°5.569 72.5 10.5 70 9.9
2009-04-30 08:30:43 51°21.493 3°5.586 72.3 10.6 69 9.9
2009-04-30 08:30:49 51°21.499 3°5.612 72.2 10.5 70 10
2009-04-30 08:30:54 51°21.504 3°5.634 72.4 10.5 70 10
2009-04-30 08:30:59 51°21.509 3°5.656 72.2 10.5 70 10
2009-04-30 08:31:03 51°21.513 3°5.673 72.7 10.5 71 9.9
2009-04-30 08:31:09 51°21.52 3°5.7 72.3 10.5 69 9.9
2009-04-30 08:31:14 51°21.525 3°5.721 71.8 10.5 68 9.9
2009-04-30 08:31:19 51°21.53 3°5.743 70.9 10.5 68 10.2
2009-04-30 08:31:24 51°21.536 3°5.764 69.9 10.4 67 10
2009-04-30 08:31:29 51°21.541 3°5.785 70.3 10.4 67 10.1
2009-04-30 08:31:34 51°21.547 3°5.806 69.7 10.3 66 10
2009-04-30 08:31:39 51°21.553 3°5.826 69.2 9.9 66 10
2009-04-30 08:31:44 51°21.558 3°5.846 69.1 9.6 65 10
2009-04-30 08:31:49 51°21.564 3°5.864 68.9 9.3 66 10
2009-04-30 08:31:54 51°21.569 3°5.882 68.8 8.9 66 10.1
2009-04-30 08:31:59 51°21.574 3°5.9 69 8.6 67 10.1
2009-04-30 08:32:04 51°21.578 3°5.917 70 8.3 67 10.2
2009-04-30 08:32:09 51°21.582 3°5.933 70.5 7.9 68 10.2
2009-04-30 08:32:14 51°21.586 3°5.948 71.1 7.5 68 10.2
2009-04-30 08:32:19 51°21.59 3°5.963 71.6 7.2 69 10.2
2009-04-30 08:32:23 51°21.592 3°5.975 72.2 6.9 69 10.2
2009-04-30 08:32:29 51°21.596 3°5.991 72.4 6.7 69 10.2
2009-04-30 08:32:34 51°21.599 3°6.005 72.4 6.5 69 10.2
2009-04-30 08:32:39 51°21.603 3°6.018 72.4 6.4 69 10.2
2009-04-30 08:32:44 51°21.606 3°6.031 72.1 6.2 70 10.3
2009-04-30 08:32:49 51°21.609 3°6.043 72 6.1 68 10.2
2009-04-30 08:32:54 51°21.611 3°6.056 71.9 6 71 10.3
2009-04-30 08:32:59 51°21.615 3°6.068 71.9 5.9 67 10.3
2009-04-30 08:33:03 51°21.617 3°6.078 71.7 5.8 69 10.3
2009-04-30 08:33:09 51°21.621 3°6.092 71.2 5.8 68 10.2
2009-04-30 08:33:14 51°21.624 3°6.103 70.7 5.7 67 10.3
2009-04-30 08:33:19 51°21.627 3°6.114 70.1 5.6 66 10.3
2009-04-30 08:33:24 51°21.63 3°6.126 69.7 5.6 66 10.3
2009-04-30 08:33:29 51°21.633 3°6.137 69 5.4 66 10.4
2009-04-30 08:33:34 51°21.636 3°6.147 69 5.3 65 10.3
2009-04-30 08:33:39 51°21.639 3°6.158 69 5.5 65 10.3
2009-04-30 08:33:44 51°21.642 3°6.17 69 5.7 66 10.3
2009-04-30 08:33:49 51°21.646 3°6.182 68.7 5.9 65 10.4
2009-04-30 08:33:54 51°21.65 3°6.194 68.3 6.1 65 10.3
2009-04-30 08:33:59 51°21.653 3°6.206 68.2 6.2 65 10.3
2009-04-30 08:34:04 51°21.657 3°6.219 68.4 6.3 66 10.4
2009-04-30 08:34:09 51°21.66 3°6.232 69 6.4 66 10.3
2009-04-30 08:34:14 51°21.664 3°6.245 69.3 6.5 66 10.4
2009-04-30 08:34:19 51°21.668 3°6.259 69.8 6.6 67 10.4
2009-04-30 08:34:24 51°21.672 3°6.273 69.8 7 66 10.4
2009-04-30 08:34:29 51°21.676 3°6.289 69.8 7.7 68 10.4
2009-04-30 08:34:34 51°21.68 3°6.305 69.8 8.2 67 10.3
2009-04-30 08:34:39 51°21.685 3°6.323 70.3 8.6 68 10.3
2009-04-30 08:34:44 51°21.69 3°6.341 69.9 9 66 10.5
2009-04-30 08:34:49 51°21.695 3°6.36 69.8 9.4 67 10.5
2009-04-30 08:34:54 51°21.7 3°6.38 69.6 9.6 66 10.5
2009-04-30 08:34:59 51°21.705 3°6.4 69.5 9.8 67 10.4
2009-04-30 08:35:03 51°21.71 3°6.416 69.5 10 66 10.4
2009-04-30 08:35:09 51°21.716 3°6.441 69.8 10.1 68 10.4
2009-04-30 08:35:14 51°21.722 3°6.462 69.8 10.2 66 10.4
2009-04-30 08:35:19 51°21.728 3°6.483 69.3 10.3 67 10.3
2009-04-30 08:35:23 51°21.732 3°6.499 69.3 10.3 67 10.6
2009-04-30 08:35:29 51°21.739 3°6.525 69.6 10.4 67 10.4
2009-04-30 08:35:34 51°21.745 3°6.546 69.6 10.4 67 10.4
2009-04-30 08:35:39 51°21.75 3°6.567 69.2 10.4 68 10.4
2009-04-30 08:35:44 51°21.755 3°6.589 71 10.4 71 10.4
2009-04-30 08:35:49 51°21.759 3°6.611 73.1 10.4 73 10.4
2009-04-30 08:35:54 51°21.763 3°6.633 74.4 10.4 74 10.4